Terminal Aerodrome Forecast
Issued by NWS

Home | Current Version | Previous Version | Text Only | Print | Product List | Glossary On
Versions: 1 2 3 4 5 6 7 8 9 10 11 12 13
000
FTUS42 KMLB 242300
TAFISM
TAF
KISM 242320Z 2500/2524 05008KT P6SM FEW050
     FM250400 35005KT P6SM FEW050
     FM251800 36010KT P6SM SCT035
      AMD NOT SKED 2502/2511=

USA.gov is the U.S. government's official web portal to all federal, state and local government web resources and services.